Aeroporto :







RITROVATECI SU...

 
LOGIN :

Iscrizione | Disclaimer

   EN    FR    IT 

 









Sommario :    VFR   VFR Marginale   IFR   IFR Intensivo   IFR Molto Intensivo
Visibilità : 
Base nubi : 
>= 8 km
>= 3000ft
5 / 8 km
1000 / 3000 ft
1500m / 5 km
500 / 1000 ft
800 / 1500m
200 / 500 ft
< 800m
< 200 ft
Simboli :   Temporali  Nebbia  Neve Forte  Precipitazioni Forti  Vento > 20 kt






- Altitudine del aeroporto : 18 ft
- Codice IATA : BIU


BIBD - Bildudalur

ULTIMO METAR :
  • 301648Z 20020KT 9999 -DZ SCT015 BKN025 OVC030 05/03 Q1025

TAF TAF BIBD
Valido dal 30 a 14 ore il 30 a 23 ore UTC


301308Z 3014/3023 21022KT 9999 FEW015 SCT020 OVC030
TEMPO 3014/3021 21025G37KT -RADZ BKN014 OVC024
BECMG 3021/3023 5000 RADZ BKN014



MetMap, La meteo Aeronautica in un colpo d'occhio ! - Copyright ORBIFLY Dicembre 2007 - Disclaimer

ORBIFLY MET'MAP TEAM :

Programmazione e sviluppo : Alexandra Zaïnal
Concezione : Baudouin d'Aumeries
Aiuto per la programmazione : Marc-Olivier Méhu
Supporto tecnico e logistico : Manuel Goepfert
Aiuto per la traduzione : Arnaldo La Scala

Contatto : metmap@orbifly.com




FONTI E CREDITI :

   NOAA